sensor_id;sensor_type;location;lat;lon;timestamp;P1;durP1;ratioP1;P2;durP2;ratioP2
49029;SDS011;43337;52.070;4.508;2022-12-13T00:01:15;47.65;;;17.33;;
49029;SDS011;43337;52.070;4.508;2022-12-13T00:03:41;45.67;;;16.67;;
49029;SDS011;43337;52.070;4.508;2022-12-13T00:06:08;47.92;;;16.75;;
49029;SDS011;43337;52.070;4.508;2022-12-13T00:08:35;42.13;;;16.98;;
49029;SDS011;43337;52.070;4.508;2022-12-13T00:11:01;49.42;;;17.08;;
49029;SDS011;43337;52.070;4.508;2022-12-13T00:13:29;52.00;;;17.75;;
49029;SDS011;43337;52.070;4.508;2022-12-13T00:15:55;47.50;;;17.13;;
49029;SDS011;43337;52.070;4.508;2022-12-13T00:18:21;41.90;;;17.23;;
49029;SDS011;43337;52.070;4.508;2022-12-13T00:20:47;53.95;;;19.75;;
49029;SDS011;43337;52.070;4.508;2022-12-13T00:23:13;39.03;;;15.95;;
49029;SDS011;43337;52.070;4.508;2022-12-13T00:25:38;46.50;;;17.83;;
49029;SDS011;43337;52.070;4.508;2022-12-13T00:28:03;50.25;;;17.23;;
49029;SDS011;43337;52.070;4.508;2022-12-13T00:30:29;51.65;;;18.77;;
49029;SDS011;43337;52.070;4.508;2022-12-13T00:32:55;50.38;;;18.25;;
49029;SDS011;43337;52.070;4.508;2022-12-13T00:35:21;51.42;;;17.30;;
49029;SDS011;43337;52.070;4.508;2022-12-13T00:37:46;50.60;;;18.15;;
49029;SDS011;43337;52.070;4.508;2022-12-13T00:40:12;52.17;;;19.58;;
49029;SDS011;43337;52.070;4.508;2022-12-13T00:42:37;55.45;;;18.98;;
49029;SDS011;43337;52.070;4.508;2022-12-13T00:45:02;45.83;;;17.42;;
49029;SDS011;43337;52.070;4.508;2022-12-13T00:47:28;48.55;;;17.80;;
49029;SDS011;43337;52.070;4.508;2022-12-13T00:49:53;43.65;;;16.75;;
49029;SDS011;43337;52.070;4.508;2022-12-13T00:52:19;43.83;;;18.55;;
49029;SDS011;43337;52.070;4.508;2022-12-13T00:54:44;44.97;;;17.35;;
49029;SDS011;43337;52.070;4.508;2022-12-13T00:57:09;44.97;;;16.50;;
49029;SDS011;43337;52.070;4.508;2022-12-13T00:59:35;51.67;;;17.40;;
49029;SDS011;43337;52.070;4.508;2022-12-13T01:02:00;46.22;;;16.90;;
49029;SDS011;43337;52.070;4.508;2022-12-13T01:04:25;45.38;;;17.30;;
49029;SDS011;43337;52.070;4.508;2022-12-13T01:06:51;36.22;;;16.52;;
49029;SDS011;43337;52.070;4.508;2022-12-13T01:09:19;49.55;;;17.23;;
49029;SDS011;43337;52.070;4.508;2022-12-13T01:11:46;46.88;;;17.02;;
49029;SDS011;43337;52.070;4.508;2022-12-13T01:14:12;46.58;;;16.35;;
49029;SDS011;43337;52.070;4.508;2022-12-13T01:16:39;48.22;;;16.88;;
49029;SDS011;43337;52.070;4.508;2022-12-13T01:19:04;43.28;;;15.90;;
49029;SDS011;43337;52.070;4.508;2022-12-13T01:21:29;49.15;;;17.30;;
49029;SDS011;43337;52.070;4.508;2022-12-13T01:23:59;44.08;;;17.20;;
49029;SDS011;43337;52.070;4.508;2022-12-13T01:26:28;44.20;;;15.38;;
49029;SDS011;43337;52.070;4.508;2022-12-13T01:28:54;45.15;;;16.48;;
49029;SDS011;43337;52.070;4.508;2022-12-13T01:31:20;44.75;;;17.50;;
49029;SDS011;43337;52.070;4.508;2022-12-13T01:33:45;45.33;;;16.60;;
49029;SDS011;43337;52.070;4.508;2022-12-13T01:36:13;46.28;;;16.45;;
49029;SDS011;43337;52.070;4.508;2022-12-13T01:38:40;52.45;;;18.25;;
49029;SDS011;43337;52.070;4.508;2022-12-13T01:41:06;49.53;;;17.75;;
49029;SDS011;43337;52.070;4.508;2022-12-13T01:46:06;50.40;;;17.02;;
49029;SDS011;43337;52.070;4.508;2022-12-13T01:48:34;46.30;;;16.58;;
49029;SDS011;43337;52.070;4.508;2022-12-13T01:51:04;43.03;;;16.13;;
49029;SDS011;43337;52.070;4.508;2022-12-13T01:53:34;44.72;;;16.65;;
49029;SDS011;43337;52.070;4.508;2022-12-13T01:56:05;49.70;;;15.77;;
49029;SDS011;43337;52.070;4.508;2022-12-13T01:58:33;50.20;;;16.85;;
49029;SDS011;43337;52.070;4.508;2022-12-13T02:01:01;45.47;;;16.33;;
49029;SDS011;43337;52.070;4.508;2022-12-13T02:03:27;42.80;;;15.98;;
49029;SDS011;43337;52.070;4.508;2022-12-13T02:06:04;43.35;;;17.35;;
49029;SDS011;43337;52.070;4.508;2022-12-13T02:08:31;40.53;;;14.13;;
49029;SDS011;43337;52.070;4.508;2022-12-13T02:10:57;48.25;;;16.38;;
49029;SDS011;43337;52.070;4.508;2022-12-13T02:13:23;37.50;;;15.43;;
49029;SDS011;43337;52.070;4.508;2022-12-13T02:21:32;40.83;;;16.38;;
49029;SDS011;43337;52.070;4.508;2022-12-13T02:32:55;29.30;;;11.47;;
49029;SDS011;43337;52.070;4.508;2022-12-13T02:35:38;46.25;;;15.82;;
49029;SDS011;43337;52.070;4.508;2022-12-13T02:40:44;42.30;;;16.67;;
49029;SDS011;43337;52.070;4.508;2022-12-13T02:45:48;39.35;;;16.88;;
49029;SDS011;43337;52.070;4.508;2022-12-13T02:48:17;35.90;;;14.10;;
49029;SDS011;43337;52.070;4.508;2022-12-13T02:50:47;39.45;;;15.88;;
49029;SDS011;43337;52.070;4.508;2022-12-13T02:53:15;38.58;;;15.38;;
49029;SDS011;43337;52.070;4.508;2022-12-13T02:55:41;37.40;;;14.60;;
49029;SDS011;43337;52.070;4.508;2022-12-13T02:58:10;40.97;;;15.40;;
49029;SDS011;43337;52.070;4.508;2022-12-13T03:00:41;37.63;;;15.35;;
49029;SDS011;43337;52.070;4.508;2022-12-13T03:03:18;42.45;;;15.30;;
49029;SDS011;43337;52.070;4.508;2022-12-13T03:11:17;43.22;;;14.60;;
49029;SDS011;43337;52.070;4.508;2022-12-13T03:19:02;38.13;;;14.50;;
49029;SDS011;43337;52.070;4.508;2022-12-13T03:21:40;37.60;;;14.30;;
49029;SDS011;43337;52.070;4.508;2022-12-13T03:24:08;38.33;;;15.15;;
49029;SDS011;43337;52.070;4.508;2022-12-13T03:26:34;36.75;;;14.60;;
49029;SDS011;43337;52.070;4.508;2022-12-13T03:29:02;41.80;;;14.23;;
49029;SDS011;43337;52.070;4.508;2022-12-13T03:31:27;41.25;;;14.23;;
49029;SDS011;43337;52.070;4.508;2022-12-13T03:33:53;40.45;;;14.02;;
49029;SDS011;43337;52.070;4.508;2022-12-13T03:36:18;37.40;;;14.73;;
49029;SDS011;43337;52.070;4.508;2022-12-13T03:38:44;37.13;;;13.40;;
49029;SDS011;43337;52.070;4.508;2022-12-13T03:41:12;35.95;;;14.10;;
49029;SDS011;43337;52.070;4.508;2022-12-13T03:43:39;43.10;;;14.15;;
49029;SDS011;43337;52.070;4.508;2022-12-13T03:46:06;36.63;;;15.10;;
49029;SDS011;43337;52.070;4.508;2022-12-13T03:48:32;41.42;;;15.02;;
49029;SDS011;43337;52.070;4.508;2022-12-13T03:50:57;38.13;;;13.82;;
49029;SDS011;43337;52.070;4.508;2022-12-13T03:53:23;36.55;;;15.00;;
49029;SDS011;43337;52.070;4.508;2022-12-13T03:55:49;39.45;;;15.02;;
49029;SDS011;43337;52.070;4.508;2022-12-13T03:58:14;41.08;;;14.27;;
49029;SDS011;43337;52.070;4.508;2022-12-13T04:00:40;36.10;;;13.90;;
49029;SDS011;43337;52.070;4.508;2022-12-13T04:03:05;38.17;;;14.25;;
49029;SDS011;43337;52.070;4.508;2022-12-13T04:05:30;37.70;;;14.00;;
49029;SDS011;43337;52.070;4.508;2022-12-13T04:07:56;35.70;;;14.55;;
49029;SDS011;43337;52.070;4.508;2022-12-13T04:10:22;38.55;;;14.18;;
49029;SDS011;43337;52.070;4.508;2022-12-13T04:12:47;35.95;;;15.20;;
49029;SDS011;43337;52.070;4.508;2022-12-13T04:15:31;40.90;;;15.02;;
49029;SDS011;43337;52.070;4.508;2022-12-13T04:17:57;40.47;;;14.45;;
49029;SDS011;43337;52.070;4.508;2022-12-13T04:20:22;37.90;;;14.20;;
49029;SDS011;43337;52.070;4.508;2022-12-13T04:22:48;38.20;;;14.25;;
49029;SDS011;43337;52.070;4.508;2022-12-13T04:25:13;36.13;;;14.15;;
49029;SDS011;43337;52.070;4.508;2022-12-13T04:27:38;33.80;;;13.70;;
49029;SDS011;43337;52.070;4.508;2022-12-13T04:30:04;40.75;;;14.27;;
49029;SDS011;43337;52.070;4.508;2022-12-13T04:32:31;38.40;;;15.27;;
49029;SDS011;43337;52.070;4.508;2022-12-13T04:34:56;35.35;;;12.77;;
49029;SDS011;43337;52.070;4.508;2022-12-13T04:37:22;40.63;;;13.73;;
49029;SDS011;43337;52.070;4.508;2022-12-13T04:39:47;40.22;;;13.63;;
49029;SDS011;43337;52.070;4.508;2022-12-13T04:42:12;41.63;;;14.55;;
49029;SDS011;43337;52.070;4.508;2022-12-13T04:44:38;40.55;;;14.70;;
49029;SDS011;43337;52.070;4.508;2022-12-13T04:47:04;37.33;;;15.50;;
49029;SDS011;43337;52.070;4.508;2022-12-13T04:49:29;40.92;;;14.90;;
49029;SDS011;43337;52.070;4.508;2022-12-13T04:51:55;47.42;;;14.80;;
49029;SDS011;43337;52.070;4.508;2022-12-13T04:54:22;38.25;;;14.45;;
49029;SDS011;43337;52.070;4.508;2022-12-13T04:56:48;40.90;;;14.18;;
49029;SDS011;43337;52.070;4.508;2022-12-13T04:59:13;91.38;;;16.42;;
49029;SDS011;43337;52.070;4.508;2022-12-13T05:01:39;40.03;;;14.82;;
49029;SDS011;43337;52.070;4.508;2022-12-13T05:04:05;41.90;;;13.77;;
49029;SDS011;43337;52.070;4.508;2022-12-13T05:06:30;37.40;;;13.43;;
49029;SDS011;43337;52.070;4.508;2022-12-13T05:08:56;37.28;;;13.43;;
49029;SDS011;43337;52.070;4.508;2022-12-13T05:11:21;39.60;;;14.07;;
49029;SDS011;43337;52.070;4.508;2022-12-13T05:13:46;40.03;;;14.90;;
49029;SDS011;43337;52.070;4.508;2022-12-13T05:16:12;38.45;;;14.52;;
49029;SDS011;43337;52.070;4.508;2022-12-13T05:18:39;41.42;;;13.85;;
49029;SDS011;43337;52.070;4.508;2022-12-13T05:21:06;38.85;;;13.88;;
49029;SDS011;43337;52.070;4.508;2022-12-13T05:23:33;38.60;;;14.65;;
49029;SDS011;43337;52.070;4.508;2022-12-13T05:25:58;38.65;;;13.48;;
49029;SDS011;43337;52.070;4.508;2022-12-13T05:28:25;51.58;;;17.67;;
49029;SDS011;43337;52.070;4.508;2022-12-13T05:30:53;44.03;;;14.57;;
49029;SDS011;43337;52.070;4.508;2022-12-13T05:33:19;36.38;;;13.82;;
49029;SDS011;43337;52.070;4.508;2022-12-13T05:35:45;46.53;;;15.50;;
49029;SDS011;43337;52.070;4.508;2022-12-13T05:38:10;33.55;;;13.63;;
49029;SDS011;43337;52.070;4.508;2022-12-13T05:40:36;38.70;;;14.10;;
49029;SDS011;43337;52.070;4.508;2022-12-13T05:43:01;37.50;;;13.00;;
49029;SDS011;43337;52.070;4.508;2022-12-13T05:45:26;40.10;;;14.88;;
49029;SDS011;43337;52.070;4.508;2022-12-13T05:47:53;41.17;;;14.93;;
49029;SDS011;43337;52.070;4.508;2022-12-13T05:50:18;43.22;;;14.55;;
49029;SDS011;43337;52.070;4.508;2022-12-13T05:52:44;43.70;;;15.55;;
49029;SDS011;43337;52.070;4.508;2022-12-13T05:55:09;41.67;;;13.57;;
49029;SDS011;43337;52.070;4.508;2022-12-13T05:57:35;41.13;;;14.25;;
49029;SDS011;43337;52.070;4.508;2022-12-13T06:00:02;36.78;;;14.32;;
49029;SDS011;43337;52.070;4.508;2022-12-13T06:02:30;34.78;;;14.27;;
49029;SDS011;43337;52.070;4.508;2022-12-13T06:04:55;40.72;;;13.80;;
49029;SDS011;43337;52.070;4.508;2022-12-13T06:07:21;43.33;;;16.25;;
49029;SDS011;43337;52.070;4.508;2022-12-13T06:09:46;40.55;;;13.43;;
49029;SDS011;43337;52.070;4.508;2022-12-13T06:12:11;43.45;;;14.10;;
49029;SDS011;43337;52.070;4.508;2022-12-13T06:14:37;38.13;;;14.55;;
49029;SDS011;43337;52.070;4.508;2022-12-13T06:17:02;38.00;;;14.90;;
49029;SDS011;43337;52.070;4.508;2022-12-13T06:19:28;38.97;;;14.93;;
49029;SDS011;43337;52.070;4.508;2022-12-13T06:21:53;37.42;;;15.23;;
49029;SDS011;43337;52.070;4.508;2022-12-13T06:24:19;42.17;;;16.67;;
49029;SDS011;43337;52.070;4.508;2022-12-13T06:26:47;40.97;;;15.43;;
49029;SDS011;43337;52.070;4.508;2022-12-13T06:29:13;46.38;;;15.90;;
49029;SDS011;43337;52.070;4.508;2022-12-13T06:31:40;39.95;;;14.38;;
49029;SDS011;43337;52.070;4.508;2022-12-13T06:34:05;46.17;;;15.57;;
49029;SDS011;43337;52.070;4.508;2022-12-13T06:36:30;39.10;;;13.55;;
49029;SDS011;43337;52.070;4.508;2022-12-13T06:39:00;46.08;;;15.35;;
49029;SDS011;43337;52.070;4.508;2022-12-13T06:41:26;35.38;;;14.68;;
49029;SDS011;43337;52.070;4.508;2022-12-13T06:43:51;44.40;;;15.82;;
49029;SDS011;43337;52.070;4.508;2022-12-13T06:46:17;45.35;;;16.27;;
49029;SDS011;43337;52.070;4.508;2022-12-13T06:48:42;42.45;;;15.77;;
49029;SDS011;43337;52.070;4.508;2022-12-13T06:51:07;46.88;;;15.82;;
49029;SDS011;43337;52.070;4.508;2022-12-13T06:53:34;74.60;;;25.05;;
49029;SDS011;43337;52.070;4.508;2022-12-13T06:56:05;55.65;;;20.02;;
49029;SDS011;43337;52.070;4.508;2022-12-13T06:58:32;48.78;;;18.45;;
49029;SDS011;43337;52.070;4.508;2022-12-13T07:01:05;44.05;;;18.05;;
49029;SDS011;43337;52.070;4.508;2022-12-13T07:03:32;42.80;;;15.95;;
49029;SDS011;43337;52.070;4.508;2022-12-13T07:05:59;45.35;;;16.45;;
49029;SDS011;43337;52.070;4.508;2022-12-13T07:08:29;43.55;;;16.58;;
49029;SDS011;43337;52.070;4.508;2022-12-13T07:10:55;43.83;;;16.98;;
49029;SDS011;43337;52.070;4.508;2022-12-13T07:13:21;46.67;;;16.73;;
49029;SDS011;43337;52.070;4.508;2022-12-13T07:15:47;44.78;;;17.42;;
49029;SDS011;43337;52.070;4.508;2022-12-13T07:18:12;50.08;;;16.02;;
49029;SDS011;43337;52.070;4.508;2022-12-13T07:20:38;40.08;;;14.57;;
49029;SDS011;43337;52.070;4.508;2022-12-13T07:23:05;39.35;;;15.07;;
49029;SDS011;43337;52.070;4.508;2022-12-13T07:25:30;46.78;;;17.15;;
49029;SDS011;43337;52.070;4.508;2022-12-13T07:27:56;45.00;;;17.00;;
49029;SDS011;43337;52.070;4.508;2022-12-13T07:30:23;40.38;;;15.10;;
49029;SDS011;43337;52.070;4.508;2022-12-13T07:32:48;55.95;;;17.60;;
49029;SDS011;43337;52.070;4.508;2022-12-13T07:35:14;51.35;;;17.83;;
49029;SDS011;43337;52.070;4.508;2022-12-13T07:37:39;46.95;;;15.60;;
49029;SDS011;43337;52.070;4.508;2022-12-13T07:40:04;46.80;;;17.38;;
49029;SDS011;43337;52.070;4.508;2022-12-13T07:42:31;50.05;;;16.52;;
49029;SDS011;43337;52.070;4.508;2022-12-13T07:44:57;53.00;;;17.92;;
49029;SDS011;43337;52.070;4.508;2022-12-13T07:47:22;46.90;;;17.50;;
49029;SDS011;43337;52.070;4.508;2022-12-13T07:49:47;51.67;;;18.20;;
49029;SDS011;43337;52.070;4.508;2022-12-13T07:52:13;43.85;;;16.10;;
49029;SDS011;43337;52.070;4.508;2022-12-13T07:54:38;59.00;;;20.58;;
49029;SDS011;43337;52.070;4.508;2022-12-13T07:57:03;53.28;;;19.52;;
49029;SDS011;43337;52.070;4.508;2022-12-13T07:59:29;47.70;;;18.00;;
49029;SDS011;43337;52.070;4.508;2022-12-13T08:01:54;50.10;;;17.63;;
49029;SDS011;43337;52.070;4.508;2022-12-13T08:04:19;54.03;;;17.30;;
49029;SDS011;43337;52.070;4.508;2022-12-13T08:06:45;51.78;;;19.10;;
49029;SDS011;43337;52.070;4.508;2022-12-13T08:09:10;60.95;;;17.83;;
49029;SDS011;43337;52.070;4.508;2022-12-13T08:11:35;45.75;;;16.65;;
49029;SDS011;43337;52.070;4.508;2022-12-13T08:14:01;47.55;;;17.48;;
49029;SDS011;43337;52.070;4.508;2022-12-13T08:16:26;50.60;;;16.70;;
49029;SDS011;43337;52.070;4.508;2022-12-13T08:18:52;49.88;;;17.67;;
49029;SDS011;43337;52.070;4.508;2022-12-13T08:21:17;53.42;;;19.30;;
49029;SDS011;43337;52.070;4.508;2022-12-13T08:23:43;59.78;;;18.90;;
49029;SDS011;43337;52.070;4.508;2022-12-13T08:26:08;57.25;;;19.90;;
49029;SDS011;43337;52.070;4.508;2022-12-13T08:28:34;50.92;;;18.52;;
49029;SDS011;43337;52.070;4.508;2022-12-13T08:31:05;56.97;;;20.05;;
49029;SDS011;43337;52.070;4.508;2022-12-13T08:33:32;50.78;;;19.88;;
49029;SDS011;43337;52.070;4.508;2022-12-13T08:36:19;55.97;;;18.92;;
49029;SDS011;43337;52.070;4.508;2022-12-13T08:38:48;48.60;;;19.10;;
49029;SDS011;43337;52.070;4.508;2022-12-13T08:41:13;54.65;;;19.17;;
49029;SDS011;43337;52.070;4.508;2022-12-13T08:43:38;52.97;;;19.15;;
49029;SDS011;43337;52.070;4.508;2022-12-13T08:46:04;54.08;;;19.40;;
49029;SDS011;43337;52.070;4.508;2022-12-13T08:48:30;48.38;;;19.70;;
49029;SDS011;43337;52.070;4.508;2022-12-13T08:50:59;57.10;;;19.35;;
49029;SDS011;43337;52.070;4.508;2022-12-13T08:53:26;54.22;;;18.65;;
49029;SDS011;43337;52.070;4.508;2022-12-13T08:55:51;54.83;;;19.38;;
49029;SDS011;43337;52.070;4.508;2022-12-13T08:58:16;58.65;;;19.85;;
49029;SDS011;43337;52.070;4.508;2022-12-13T09:00:42;53.17;;;19.90;;
49029;SDS011;43337;52.070;4.508;2022-12-13T09:03:09;54.97;;;21.33;;
49029;SDS011;43337;52.070;4.508;2022-12-13T09:05:34;53.38;;;19.75;;
49029;SDS011;43337;52.070;4.508;2022-12-13T09:08:00;56.13;;;20.10;;
49029;SDS011;43337;52.070;4.508;2022-12-13T09:10:28;60.30;;;19.70;;
49029;SDS011;43337;52.070;4.508;2022-12-13T09:12:54;58.65;;;19.70;;
49029;SDS011;43337;52.070;4.508;2022-12-13T09:15:23;53.00;;;19.27;;
49029;SDS011;43337;52.070;4.508;2022-12-13T09:17:48;57.92;;;22.45;;
49029;SDS011;43337;52.070;4.508;2022-12-13T09:20:15;60.88;;;21.17;;
49029;SDS011;43337;52.070;4.508;2022-12-13T09:22:41;58.03;;;20.60;;
49029;SDS011;43337;52.070;4.508;2022-12-13T09:25:07;69.25;;;21.55;;
49029;SDS011;43337;52.070;4.508;2022-12-13T09:27:33;66.97;;;20.95;;
49029;SDS011;43337;52.070;4.508;2022-12-13T09:29:58;58.22;;;22.45;;
49029;SDS011;43337;52.070;4.508;2022-12-13T09:32:25;64.35;;;22.48;;
49029;SDS011;43337;52.070;4.508;2022-12-13T09:34:51;65.03;;;21.15;;
49029;SDS011;43337;52.070;4.508;2022-12-13T09:37:17;61.00;;;21.95;;
49029;SDS011;43337;52.070;4.508;2022-12-13T09:39:42;65.43;;;23.23;;
49029;SDS011;43337;52.070;4.508;2022-12-13T09:42:14;71.38;;;22.55;;
49029;SDS011;43337;52.070;4.508;2022-12-13T09:44:55;55.03;;;22.00;;
49029;SDS011;43337;52.070;4.508;2022-12-13T09:47:34;64.25;;;21.92;;
49029;SDS011;43337;52.070;4.508;2022-12-13T09:50:07;59.15;;;21.27;;
49029;SDS011;43337;52.070;4.508;2022-12-13T09:52:38;61.22;;;21.77;;
49029;SDS011;43337;52.070;4.508;2022-12-13T09:55:21;62.92;;;20.40;;
49029;SDS011;43337;52.070;4.508;2022-12-13T09:57:49;69.40;;;22.75;;
49029;SDS011;43337;52.070;4.508;2022-12-13T10:00:18;52.97;;;22.02;;
49029;SDS011;43337;52.070;4.508;2022-12-13T10:02:45;56.25;;;21.15;;
49029;SDS011;43337;52.070;4.508;2022-12-13T10:05:16;64.85;;;22.92;;
49029;SDS011;43337;52.070;4.508;2022-12-13T10:07:45;60.78;;;23.02;;
49029;SDS011;43337;52.070;4.508;2022-12-13T10:10:11;58.42;;;21.98;;
49029;SDS011;43337;52.070;4.508;2022-12-13T10:12:39;62.15;;;22.88;;
49029;SDS011;43337;52.070;4.508;2022-12-13T10:15:07;63.08;;;23.38;;
49029;SDS011;43337;52.070;4.508;2022-12-13T10:17:37;65.78;;;24.10;;
49029;SDS011;43337;52.070;4.508;2022-12-13T10:20:05;61.88;;;24.63;;
49029;SDS011;43337;52.070;4.508;2022-12-13T10:22:31;67.78;;;23.27;;
49029;SDS011;43337;52.070;4.508;2022-12-13T10:25:00;59.10;;;22.98;;
49029;SDS011;43337;52.070;4.508;2022-12-13T10:27:44;57.53;;;21.25;;
49029;SDS011;43337;52.070;4.508;2022-12-13T10:32:57;64.03;;;23.67;;
49029;SDS011;43337;52.070;4.508;2022-12-13T10:35:26;55.22;;;20.55;;
49029;SDS011;43337;52.070;4.508;2022-12-13T10:37:54;55.50;;;22.05;;
49029;SDS011;43337;52.070;4.508;2022-12-13T10:40:25;59.80;;;21.50;;
49029;SDS011;43337;52.070;4.508;2022-12-13T10:43:05;53.92;;;21.75;;
49029;SDS011;43337;52.070;4.508;2022-12-13T10:45:40;59.03;;;23.25;;
49029;SDS011;43337;52.070;4.508;2022-12-13T10:48:16;64.65;;;23.90;;
49029;SDS011;43337;52.070;4.508;2022-12-13T10:50:54;52.90;;;21.38;;
49029;SDS011;43337;52.070;4.508;2022-12-13T10:53:22;71.55;;;21.95;;
49029;SDS011;43337;52.070;4.508;2022-12-13T10:55:54;55.47;;;24.08;;
49029;SDS011;43337;52.070;4.508;2022-12-13T10:58:20;56.05;;;23.10;;
49029;SDS011;43337;52.070;4.508;2022-12-13T11:00:46;54.72;;;21.98;;
49029;SDS011;43337;52.070;4.508;2022-12-13T11:03:29;54.70;;;21.85;;
49029;SDS011;43337;52.070;4.508;2022-12-13T11:06:12;53.70;;;20.70;;
49029;SDS011;43337;52.070;4.508;2022-12-13T11:08:39;51.28;;;20.50;;
49029;SDS011;43337;52.070;4.508;2022-12-13T11:11:05;45.05;;;18.90;;
49029;SDS011;43337;52.070;4.508;2022-12-13T11:13:36;49.60;;;20.05;;
49029;SDS011;43337;52.070;4.508;2022-12-13T11:16:23;50.70;;;21.90;;
49029;SDS011;43337;52.070;4.508;2022-12-13T11:18:55;47.38;;;19.73;;
49029;SDS011;43337;52.070;4.508;2022-12-13T11:21:30;51.65;;;20.15;;
49029;SDS011;43337;52.070;4.508;2022-12-13T11:23:58;44.00;;;20.23;;
49029;SDS011;43337;52.070;4.508;2022-12-13T11:26:30;45.05;;;19.25;;
49029;SDS011;43337;52.070;4.508;2022-12-13T11:29:14;44.58;;;20.83;;
49029;SDS011;43337;52.070;4.508;2022-12-13T11:34:56;43.08;;;18.42;;
49029;SDS011;43337;52.070;4.508;2022-12-13T11:40:24;47.40;;;19.58;;
49029;SDS011;43337;52.070;4.508;2022-12-13T11:42:58;43.63;;;19.75;;
49029;SDS011;43337;52.070;4.508;2022-12-13T11:45:32;43.97;;;18.75;;
49029;SDS011;43337;52.070;4.508;2022-12-13T11:48:14;52.45;;;20.92;;
49029;SDS011;43337;52.070;4.508;2022-12-13T11:50:46;47.35;;;18.35;;
49029;SDS011;43337;52.070;4.508;2022-12-13T11:53:21;54.88;;;22.10;;
49029;SDS011;43337;52.070;4.508;2022-12-13T11:55:55;51.30;;;20.60;;
49029;SDS011;43337;52.070;4.508;2022-12-13T12:01:55;52.92;;;19.00;;
49029;SDS011;43337;52.070;4.508;2022-12-13T12:04:47;44.65;;;19.25;;
49029;SDS011;43337;52.070;4.508;2022-12-13T12:07:16;48.30;;;19.48;;
49029;SDS011;43337;52.070;4.508;2022-12-13T12:09:48;43.60;;;18.98;;
49029;SDS011;43337;52.070;4.508;2022-12-13T12:12:31;48.88;;;19.23;;
49029;SDS011;43337;52.070;4.508;2022-12-13T12:15:08;48.28;;;20.00;;
49029;SDS011;43337;52.070;4.508;2022-12-13T12:17:39;47.25;;;19.58;;
49029;SDS011;43337;52.070;4.508;2022-12-13T12:20:09;45.65;;;20.10;;
49029;SDS011;43337;52.070;4.508;2022-12-13T12:22:59;45.85;;;19.50;;
49029;SDS011;43337;52.070;4.508;2022-12-13T12:25:44;46.50;;;19.30;;
49029;SDS011;43337;52.070;4.508;2022-12-13T12:31:06;51.65;;;21.08;;
49029;SDS011;43337;52.070;4.508;2022-12-13T12:45:48;42.35;;;18.75;;
49029;SDS011;43337;52.070;4.508;2022-12-13T12:51:03;42.78;;;16.75;;
49029;SDS011;43337;52.070;4.508;2022-12-13T12:53:48;36.40;;;16.42;;
49029;SDS011;43337;52.070;4.508;2022-12-13T12:56:37;33.72;;;14.52;;
49029;SDS011;43337;52.070;4.508;2022-12-13T13:02:25;42.10;;;17.25;;
49029;SDS011;43337;52.070;4.508;2022-12-13T13:05:09;46.40;;;16.45;;
49029;SDS011;43337;52.070;4.508;2022-12-13T13:07:48;36.03;;;15.73;;
49029;SDS011;43337;52.070;4.508;2022-12-13T13:10:20;38.60;;;15.85;;
49029;SDS011;43337;52.070;4.508;2022-12-13T13:12:47;40.85;;;16.88;;
49029;SDS011;43337;52.070;4.508;2022-12-13T13:17:58;38.63;;;17.30;;
49029;SDS011;43337;52.070;4.508;2022-12-13T13:20:24;38.40;;;16.48;;
49029;SDS011;43337;52.070;4.508;2022-12-13T13:22:52;40.40;;;17.42;;
49029;SDS011;43337;52.070;4.508;2022-12-13T13:27:59;45.03;;;18.67;;
49029;SDS011;43337;52.070;4.508;2022-12-13T13:30:30;43.20;;;18.52;;
49029;SDS011;43337;52.070;4.508;2022-12-13T13:32:56;39.10;;;16.67;;
49029;SDS011;43337;52.070;4.508;2022-12-13T13:38:01;43.92;;;17.52;;
49029;SDS011;43337;52.070;4.508;2022-12-13T13:40:34;44.10;;;17.75;;
49029;SDS011;43337;52.070;4.508;2022-12-13T13:45:32;47.55;;;18.48;;
49029;SDS011;43337;52.070;4.508;2022-12-13T13:54:12;41.95;;;16.70;;
49029;SDS011;43337;52.070;4.508;2022-12-13T13:57:00;37.85;;;16.17;;
49029;SDS011;43337;52.070;4.508;2022-12-13T14:04:56;43.17;;;18.13;;
49029;SDS011;43337;52.070;4.508;2022-12-13T14:08:01;38.15;;;17.45;;
49029;SDS011;43337;52.070;4.508;2022-12-13T14:28:00;43.38;;;17.92;;
49029;SDS011;43337;52.070;4.508;2022-12-13T14:30:42;43.13;;;18.40;;
49029;SDS011;43337;52.070;4.508;2022-12-13T14:33:19;44.42;;;18.70;;
49029;SDS011;43337;52.070;4.508;2022-12-13T14:35:51;44.15;;;16.90;;
49029;SDS011;43337;52.070;4.508;2022-12-13T14:38:25;41.50;;;17.25;;
49029;SDS011;43337;52.070;4.508;2022-12-13T14:40:54;44.40;;;18.30;;
49029;SDS011;43337;52.070;4.508;2022-12-13T14:43:25;41.05;;;17.20;;
49029;SDS011;43337;52.070;4.508;2022-12-13T14:45:57;44.75;;;18.52;;
49029;SDS011;43337;52.070;4.508;2022-12-13T14:48:24;41.63;;;18.00;;
49029;SDS011;43337;52.070;4.508;2022-12-13T14:50:51;43.85;;;17.45;;
49029;SDS011;43337;52.070;4.508;2022-12-13T14:53:24;39.30;;;16.90;;
49029;SDS011;43337;52.070;4.508;2022-12-13T14:56:08;43.92;;;15.65;;
49029;SDS011;43337;52.070;4.508;2022-12-13T14:58:36;45.03;;;17.55;;
49029;SDS011;43337;52.070;4.508;2022-12-13T15:01:05;42.33;;;17.63;;
49029;SDS011;43337;52.070;4.508;2022-12-13T15:03:48;43.75;;;17.00;;
49029;SDS011;43337;52.070;4.508;2022-12-13T15:06:15;40.50;;;16.65;;
49029;SDS011;43337;52.070;4.508;2022-12-13T15:08:44;39.75;;;15.82;;
49029;SDS011;43337;52.070;4.508;2022-12-13T15:11:10;42.20;;;16.52;;
49029;SDS011;43337;52.070;4.508;2022-12-13T15:13:46;41.83;;;17.08;;
49029;SDS011;43337;52.070;4.508;2022-12-13T15:16:24;44.80;;;15.98;;
49029;SDS011;43337;52.070;4.508;2022-12-13T15:19:05;42.92;;;17.63;;
49029;SDS011;43337;52.070;4.508;2022-12-13T15:21:51;39.78;;;16.92;;
49029;SDS011;43337;52.070;4.508;2022-12-13T15:24:22;42.60;;;17.15;;
49029;SDS011;43337;52.070;4.508;2022-12-13T15:26:51;40.50;;;16.58;;
49029;SDS011;43337;52.070;4.508;2022-12-13T15:29:18;41.97;;;17.52;;
49029;SDS011;43337;52.070;4.508;2022-12-13T15:31:46;44.00;;;17.83;;
49029;SDS011;43337;52.070;4.508;2022-12-13T15:34:20;38.50;;;16.98;;
49029;SDS011;43337;52.070;4.508;2022-12-13T15:36:51;41.88;;;16.52;;
49029;SDS011;43337;52.070;4.508;2022-12-13T15:39:17;48.50;;;18.23;;
49029;SDS011;43337;52.070;4.508;2022-12-13T15:41:47;40.72;;;16.90;;
49029;SDS011;43337;52.070;4.508;2022-12-13T15:44:22;51.65;;;18.08;;
49029;SDS011;43337;52.070;4.508;2022-12-13T15:46:50;43.85;;;16.38;;
49029;SDS011;43337;52.070;4.508;2022-12-13T15:52:02;43.47;;;17.85;;
49029;SDS011;43337;52.070;4.508;2022-12-13T15:54:29;44.60;;;19.05;;
49029;SDS011;43337;52.070;4.508;2022-12-13T15:57:14;42.67;;;17.42;;
49029;SDS011;43337;52.070;4.508;2022-12-13T15:59:46;44.55;;;17.75;;
49029;SDS011;43337;52.070;4.508;2022-12-13T16:02:14;46.88;;;18.30;;
49029;SDS011;43337;52.070;4.508;2022-12-13T16:04:45;49.10;;;19.88;;
49029;SDS011;43337;52.070;4.508;2022-12-13T16:07:28;46.28;;;19.77;;
49029;SDS011;43337;52.070;4.508;2022-12-13T16:10:03;47.47;;;17.80;;
49029;SDS011;43337;52.070;4.508;2022-12-13T16:12:34;45.38;;;19.10;;
49029;SDS011;43337;52.070;4.508;2022-12-13T16:17:44;48.05;;;17.83;;
49029;SDS011;43337;52.070;4.508;2022-12-13T16:20:14;44.80;;;17.17;;
49029;SDS011;43337;52.070;4.508;2022-12-13T16:22:43;46.28;;;18.40;;